Time;durP1;ratioP1;P1;durP2;ratioP2;P2;SDS_P1;SDS_P2;PMS_P1;PMS_P2;Temp;Humidity;BMP_temperature;BMP_pressure;BME280_temperature;BME280_humidity;BME280_pressure;Samples;Min_cycle;Max_cycle;Signal;HPM_P1;HPM_P2
2022/11/08 00:01:39;;;;;;;17.80;8.60;;;;;;;8.72;79.98;99154.48;102188;1294;75642;-27
2022/11/08 00:04:11;;;;;;;11.40;7.10;;;;;;;8.54;80.23;99154.71;102338;1302;76278;-27
2022/11/08 00:14:57;;;;;;;21.80;9.40;;;;;;;8.53;80.69;99153.44;101992;1297;76188;-27
2022/11/08 00:17:25;;;;;;;18.60;8.70;;;;;;;8.46;80.49;99154.08;102136;1301;75533;-27
2022/11/08 00:19:52;;;;;;;13.70;7.30;;;;;;;8.24;81.28;99154.77;102051;1294;75343;-28
2022/11/08 00:22:20;;;;;;;13.30;7.60;;;;;;;7.98;82.17;99158.60;102090;1301;63174;-27
2022/11/08 00:24:47;;;;;;;14.60;7.60;;;;;;;8.32;82.00;99151.56;102128;1295;61610;-27
2022/11/08 00:27:19;;;;;;;17.00;8.60;;;;;;;8.66;80.76;99153.04;102184;1302;76373;-27
2022/11/08 00:29:46;;;;;;;14.30;9.20;;;;;;;8.64;80.46;99154.23;102205;1301;76821;-27
2022/11/08 00:32:15;;;;;;;12.40;8.40;;;;;;;8.40;80.90;99154.98;102211;1287;75196;-27
2022/11/08 00:34:42;;;;;;;13.60;9.00;;;;;;;8.10;82.03;99160.00;102027;1300;63045;-27
2022/11/08 00:37:09;;;;;;;14.00;7.60;;;;;;;7.96;82.66;99159.91;102150;1302;62670;-27
2022/11/08 00:39:37;;;;;;;22.10;9.60;;;;;;;8.26;82.31;99157.73;102074;1301;76036;-27
2022/11/08 00:42:04;;;;;;;21.20;10.00;;;;;;;8.61;81.17;99159.99;102195;1300;76748;-27
2022/11/08 00:44:31;;;;;;;14.70;8.60;;;;;;;8.60;80.63;99161.80;102115;1301;75210;-27
2022/11/08 00:46:58;;;;;;;13.00;8.20;;;;;;;8.35;81.30;99170.88;102052;1297;61875;-27
2022/11/08 00:49:25;;;;;;;14.00;8.10;;;;;;;8.14;82.24;99168.02;102180;1301;62839;-27
2022/11/08 00:51:53;;;;;;;14.40;7.90;;;;;;;8.17;82.38;99171.49;102096;1301;76434;-27
2022/11/08 00:54:20;;;;;;;13.80;8.60;;;;;;;8.62;81.36;99167.48;102202;1302;76820;-27
2022/11/08 00:56:47;;;;;;;17.60;9.70;;;;;;;8.77;80.67;99175.09;102214;1299;73924;-27
2022/11/08 00:59:16;;;;;;;15.90;8.80;;;;;;;8.74;80.47;99176.33;102219;1302;63130;-27
2022/11/08 01:01:44;;;;;;;13.70;7.60;;;;;;;8.56;80.74;99173.44;102060;1305;63055;-27
2022/11/08 01:04:12;;;;;;;12.70;8.60;;;;;;;8.37;81.31;99174.61;102033;1301;76389;-27
2022/11/08 01:06:40;;;;;;;12.80;7.10;;;;;;;8.17;82.10;99176.14;102023;1302;77063;-27
2022/11/08 01:09:07;;;;;;;16.60;9.40;;;;;;;8.48;82.23;99172.83;102159;1301;75240;-27
2022/11/08 01:11:34;;;;;;;16.70;9.00;;;;;;;8.81;81.15;99173.08;102038;1300;62638;-27
2022/11/08 01:14:01;;;;;;;20.50;10.50;;;;;;;8.79;80.55;99170.96;102186;1301;62621;-28
2022/11/08 01:16:30;;;;;;;22.70;9.40;;;;;;;8.59;81.31;99166.88;102136;1300;75783;-27
2022/11/08 01:18:57;;;;;;;18.40;10.20;;;;;;;8.33;82.16;99162.40;102135;1294;75844;-27
2022/11/08 01:21:25;;;;;;;15.50;6.80;;;;;;;8.27;82.43;99160.09;102181;1301;75333;-27
2022/11/08 01:23:53;;;;;;;13.90;8.30;;;;;;;8.72;81.92;99154.69;102053;1302;61180;-27
2022/11/08 01:26:23;;;;;;;15.40;8.90;;;;;;;9.13;79.91;99157.57;102095;1302;62950;-27
2022/11/08 01:28:51;;;;;;;15.70;9.60;;;;;;;9.07;79.59;99161.52;102050;1302;75199;-27
2022/11/08 01:31:22;;;;;;;19.70;10.60;;;;;;;8.74;80.68;99164.89;102172;1300;75678;-28
2022/11/08 01:33:50;;;;;;;16.20;9.80;;;;;;;8.53;81.35;99163.64;102072;1299;75336;-28
2022/11/08 01:36:20;;;;;;;14.40;8.00;;;;;;;8.34;82.26;99166.38;102150;1302;64334;-28
2022/11/08 01:38:47;;;;;;;15.70;10.00;;;;;;;8.68;82.36;99164.17;102089;1305;62078;-27
2022/11/08 01:41:15;;;;;;;17.70;10.30;;;;;;;9.01;80.89;99163.67;102307;1300;76487;-28
2022/11/08 01:43:44;;;;;;;18.30;10.50;;;;;;;8.98;80.74;99167.56;102253;1300;75968;-27
2022/11/08 01:46:15;;;;;;;18.00;10.10;;;;;;;8.75;81.53;99164.67;102150;1302;74171;-27
2022/11/08 01:49:05;;;;;;;19.70;10.60;;;;;;;8.59;81.72;99169.11;102223;1302;62917;-27
2022/11/08 01:52:03;;;;;;;16.50;9.30;;;;;;;8.37;82.79;99171.80;102201;1308;62815;-28
2022/11/08 01:54:42;;;;;;;16.90;9.90;;;;;;;8.99;81.49;99172.66;101911;1302;76346;-27
2022/11/08 01:57:11;;;;;;;18.90;10.70;;;;;;;9.24;80.42;99172.90;102135;1302;76810;-27
2022/11/08 01:59:39;;;;;;;21.90;11.00;;;;;;;9.04;80.67;99169.67;101944;1301;75496;-27
2022/11/08 02:02:07;;;;;;;19.60;11.60;;;;;;;8.75;81.87;99175.73;101860;1305;61867;-27
2022/11/08 02:04:35;;;;;;;17.30;10.80;;;;;;;8.61;82.08;99175.02;101993;1303;61763;-27
2022/11/08 02:07:02;;;;;;;11.40;7.20;;;;;;;8.48;82.63;99171.42;101996;1304;75644;-27
2022/11/08 02:09:29;;;;;;;16.20;9.80;;;;;;;8.87;82.59;99171.75;101927;1301;75806;-27
2022/11/08 02:11:56;;;;;;;17.10;11.50;;;;;;;9.31;80.92;99177.41;101933;1305;74138;-27
2022/11/08 02:14:23;;;;;;;19.30;10.60;;;;;;;9.37;80.37;99177.19;102003;1300;62966;-27
2022/11/08 02:16:51;;;;;;;17.80;10.50;;;;;;;9.21;80.27;99178.01;101955;1298;62762;-27
2022/11/08 02:19:34;;;;;;;18.90;11.50;;;;;;;8.97;81.30;99179.73;102001;1302;76115;-27
2022/11/08 02:22:02;;;;;;;18.20;9.10;;;;;;;8.77;82.13;99178.88;101999;1305;77050;-26
2022/11/08 02:24:30;;;;;;;20.60;10.80;;;;;;;9.15;81.89;99178.59;102034;1302;75299;-26
2022/11/08 02:26:57;;;;;;;16.30;10.90;;;;;;;9.47;80.87;99183.39;102030;1301;62860;-25
2022/11/08 02:29:25;;;;;;;18.50;9.70;;;;;;;9.43;80.65;99183.48;102076;1298;61792;-25
2022/11/08 02:31:53;;;;;;;15.40;9.70;;;;;;;9.27;80.74;99180.30;101983;1302;75051;-25
2022/11/08 02:34:23;;;;;;;22.40;11.30;;;;;;;9.07;81.14;99180.52;102081;1302;76701;-25
2022/11/08 02:36:50;;;;;;;18.30;8.50;;;;;;;8.90;81.82;99183.17;101997;1300;75210;-24
2022/11/08 02:39:17;;;;;;;17.60;8.90;;;;;;;9.32;81.73;99179.92;101953;1304;62968;-25
2022/11/08 02:41:44;;;;;;;15.30;10.50;;;;;;;9.80;80.40;99180.72;102102;1302;62857;-25
2022/11/08 02:44:11;;;;;;;21.80;10.30;;;;;;;9.78;80.08;99179.34;102108;1291;75380;-25
2022/11/08 02:46:39;;;;;;;17.30;11.20;;;;;;;9.56;80.45;99181.12;102076;1302;74833;-25
2022/11/08 02:49:06;;;;;;;19.10;12.20;;;;;;;9.27;80.29;99178.59;102019;1301;75238;-25
2022/11/08 02:51:33;;;;;;;19.70;11.20;;;;;;;8.98;81.42;99180.17;102046;1302;62668;-25
2022/11/08 02:54:00;;;;;;;14.80;8.00;;;;;;;8.79;82.29;99178.45;102017;1303;62657;-26
2022/11/08 02:56:27;;;;;;;17.00;9.80;;;;;;;9.18;82.21;99172.33;102110;1302;75555;-25
2022/11/08 02:58:54;;;;;;;16.80;10.40;;;;;;;9.70;81.30;99170.36;102183;1301;75659;-25
2022/11/08 03:01:21;;;;;;;15.40;10.20;;;;;;;9.73;80.60;99172.41;102090;1302;74911;-25
2022/11/08 03:03:49;;;;;;;18.00;11.60;;;;;;;9.55;80.94;99169.27;102070;1300;61757;-25
2022/11/08 03:06:16;;;;;;;19.90;12.30;;;;;;;9.28;82.09;99179.23;101938;1299;62703;-25
2022/11/08 03:08:43;;;;;;;21.20;12.40;;;;;;;9.04;83.18;99183.71;101986;1292;76421;-25
2022/11/08 03:11:10;;;;;;;14.90;9.80;;;;;;;8.88;84.32;99185.72;102227;1302;76820;-25
2022/11/08 03:13:37;;;;;;;19.30;10.50;;;;;;;9.34;83.88;99186.71;102055;1300;74285;-25
2022/11/08 03:16:05;;;;;;;19.00;10.80;;;;;;;9.81;82.27;99187.40;102199;1302;62605;-25
2022/11/08 03:18:32;;;;;;;19.90;11.10;;;;;;;9.80;81.53;99184.33;102289;1299;62946;-25
2022/11/08 03:21:02;;;;;;;19.80;11.40;;;;;;;9.62;81.85;99185.22;102134;1299;76354;-25
2022/11/08 03:23:30;;;;;;;20.80;12.80;;;;;;;9.36;82.57;99189.73;102073;1302;76713;-25
2022/11/08 03:26:02;;;;;;;19.60;11.10;;;;;;;9.10;83.47;99188.83;101909;1309;75473;-25
2022/11/08 03:28:29;;;;;;;20.40;10.90;;;;;;;8.88;84.34;99192.30;101916;1303;64399;-25
2022/11/08 03:30:56;;;;;;;23.50;11.40;;;;;;;9.23;83.84;99196.73;101970;1301;61782;-25
2022/11/08 03:33:23;;;;;;;20.90;12.50;;;;;;;9.56;82.14;99198.27;102177;1300;76298;-25
2022/11/08 03:35:51;;;;;;;19.30;11.50;;;;;;;9.49;82.21;99199.47;102139;1302;76789;-25
2022/11/08 03:38:18;;;;;;;24.40;14.40;;;;;;;9.25;82.70;99199.70;102028;1301;75264;-24
2022/11/08 03:40:46;;;;;;;28.60;15.70;;;;;;;8.93;84.06;99199.92;102070;1301;62077;-25
2022/11/08 03:43:13;;;;;;;18.90;10.90;;;;;;;8.68;85.44;99200.84;101975;1302;62883;-24
2022/11/08 03:45:40;;;;;;;24.70;12.90;;;;;;;8.94;84.58;99198.45;102051;1299;74097;-24
2022/11/08 03:48:07;;;;;;;22.20;12.60;;;;;;;9.24;82.88;99199.74;102257;1299;75679;-25
2022/11/08 03:50:34;;;;;;;22.30;13.10;;;;;;;9.28;82.00;99199.17;102219;1291;75131;-24
2022/11/08 03:53:01;;;;;;;24.20;14.50;;;;;;;9.16;82.46;99201.74;102174;1295;62854;-24
2022/11/08 03:55:29;;;;;;;21.50;13.00;;;;;;;8.94;82.80;99202.81;102045;1301;62578;-24
2022/11/08 03:57:56;;;;;;;17.00;11.10;;;;;;;8.69;83.41;99205.40;102191;1301;75389;-24
2022/11/08 04:00:25;;;;;;;19.60;11.30;;;;;;;9.00;83.14;99202.67;101924;1304;76969;-24
2022/11/08 04:02:54;;;;;;;21.50;12.70;;;;;;;9.37;81.52;99206.82;102027;1296;74292;-24
2022/11/08 04:05:21;;;;;;;21.20;12.00;;;;;;;9.28;80.91;99205.55;102052;1302;62942;-24
2022/11/08 04:07:48;;;;;;;19.90;11.60;;;;;;;9.07;81.73;99206.75;102122;1299;62945;-24
2022/11/08 04:10:16;;;;;;;20.70;12.90;;;;;;;8.79;82.23;99202.29;102092;1293;76428;-24
2022/11/08 04:15:30;;;;;;;20.90;10.10;;;;;;;8.95;83.21;99206.02;102172;1298;74218;-24
2022/11/08 04:23:34;;;;;;;16.30;10.90;;;;;;;9.01;81.26;99213.56;101944;1305;76426;-24
2022/11/08 04:26:03;;;;;;;19.50;11.60;;;;;;;8.70;81.84;99211.09;101918;1301;75811;-24
2022/11/08 04:28:34;;;;;;;17.10;9.60;;;;;;;8.43;82.84;99218.46;101891;1302;74234;-24
2022/11/08 04:31:03;;;;;;;14.20;9.10;;;;;;;8.76;82.80;99214.77;101927;1302;61799;-24
2022/11/08 04:33:30;;;;;;;16.10;10.50;;;;;;;9.19;81.34;99214.90;101938;1295;62908;-24
2022/11/08 04:36:02;;;;;;;17.50;10.80;;;;;;;9.15;80.38;99217.23;101887;1292;74366;-24
2022/11/08 04:38:30;;;;;;;18.90;11.00;;;;;;;8.91;80.93;99215.45;101923;1301;76607;-25
2022/11/08 04:41:01;;;;;;;18.00;10.60;;;;;;;8.67;81.57;99219.95;102080;1302;75227;-26
2022/11/08 04:43:29;;;;;;;16.90;11.30;;;;;;;8.41;82.14;99225.31;101912;1302;62590;-26
2022/11/08 04:46:20;;;;;;;14.00;8.00;;;;;;;8.24;82.92;99227.90;101916;1303;62932;-26
2022/11/08 04:48:49;;;;;;;15.30;8.70;;;;;;;8.76;82.58;99228.31;102011;1301;76253;-26
2022/11/08 04:51:18;;;;;;;21.20;10.80;;;;;;;9.24;81.34;99224.55;102003;1294;76795;-26
2022/11/08 04:53:46;;;;;;;17.70;10.90;;;;;;;9.26;80.52;99225.42;101929;1303;75148;-25
2022/11/08 04:56:18;;;;;;;17.20;10.10;;;;;;;9.07;80.67;99228.56;101956;1307;62891;-25
2022/11/08 04:58:52;;;;;;;18.10;11.00;;;;;;;8.80;81.30;99227.86;101970;1301;61719;-25
2022/11/08 05:01:21;;;;;;;18.50;11.20;;;;;;;8.55;81.77;99236.01;102048;1300;76242;-25
2022/11/08 05:03:49;;;;;;;15.80;8.60;;;;;;;8.38;82.58;99237.46;101978;1298;76800;-23
2022/11/08 05:06:24;;;;;;;13.20;8.30;;;;;;;8.81;82.42;99238.91;101952;1302;74169;-23
2022/11/08 05:08:53;;;;;;;17.10;10.50;;;;;;;9.31;80.62;99234.73;102003;1302;62888;-23
2022/11/08 05:11:21;;;;;;;21.00;11.40;;;;;;;9.31;79.96;99240.33;101874;1301;62951;-25
2022/11/08 05:13:49;;;;;;;17.40;10.40;;;;;;;9.10;80.32;99243.73;101925;1297;75429;-25
2022/11/08 05:16:18;;;;;;;18.80;11.70;;;;;;;8.86;81.13;99246.64;101937;1302;75767;-25
2022/11/08 05:18:45;;;;;;;18.60;10.60;;;;;;;8.61;81.42;99254.63;101976;1302;73288;-25
2022/11/08 05:24:00;;;;;;;17.90;9.30;;;;;;;8.86;82.17;99253.22;102011;1294;62840;-25
2022/11/08 05:26:27;;;;;;;16.20;10.80;;;;;;;9.26;80.15;99257.13;102005;1302;76611;-25
2022/11/08 05:28:55;;;;;;;16.70;10.90;;;;;;;9.22;79.87;99253.27;102226;1286;76805;-25
2022/11/08 05:31:22;;;;;;;18.00;10.60;;;;;;;8.99;80.19;99257.83;102191;1295;75245;-25
2022/11/08 05:33:49;;;;;;;22.40;12.30;;;;;;;8.70;81.17;99259.36;102280;1300;62960;-25
2022/11/08 05:36:16;;;;;;;23.10;11.90;;;;;;;8.46;81.99;99265.34;101981;1301;62880;-25
2022/11/08 05:38:43;;;;;;;14.20;8.10;;;;;;;8.28;82.73;99263.10;101900;1301;76233;-25
2022/11/08 05:41:12;;;;;;;16.10;10.10;;;;;;;8.69;82.30;99268.95;101958;1302;77001;-25
2022/11/08 05:43:40;;;;;;;16.60;10.20;;;;;;;9.20;80.58;99267.77;101948;1301;73437;-23
2022/11/08 05:46:07;;;;;;;16.10;10.00;;;;;;;9.22;79.63;99268.36;101994;1301;62963;-22
2022/11/08 05:48:34;;;;;;;17.30;10.40;;;;;;;9.03;80.10;99270.75;102013;1302;62823;-24
2022/11/08 05:51:02;;;;;;;17.80;10.40;;;;;;;8.78;80.86;99274.74;101869;1305;75338;-25
2022/11/08 05:53:30;;;;;;;18.50;11.20;;;;;;;8.53;81.52;99276.63;102094;1302;76411;-25
2022/11/08 05:55:58;;;;;;;13.90;8.70;;;;;;;8.37;82.42;99278.21;101920;1304;75335;-25
2022/11/08 05:58:26;;;;;;;13.50;9.00;;;;;;;8.80;82.29;99286.52;101979;1294;62874;-25
2022/11/08 06:01:06;;;;;;;15.00;9.10;;;;;;;9.25;80.10;99282.13;101951;1301;61771;-25
2022/11/08 06:03:34;;;;;;;15.30;9.80;;;;;;;9.24;79.52;99282.40;102057;1294;76353;-25
2022/11/08 06:06:09;;;;;;;16.50;9.70;;;;;;;9.03;80.09;99287.35;102111;1302;76886;-25
2022/11/08 06:08:36;;;;;;;17.40;9.70;;;;;;;8.82;80.85;99286.93;102079;1295;74479;-25
2022/11/08 06:11:05;;;;;;;20.60;10.50;;;;;;;8.61;81.39;99289.40;102122;1302;62988;-25
2022/11/08 06:13:32;;;;;;;15.20;8.60;;;;;;;8.46;82.08;99287.47;102013;1305;62812;-25
2022/11/08 06:16:04;;;;;;;11.90;7.50;;;;;;;8.91;81.83;99286.45;102011;1295;75064;-25
2022/11/08 06:18:32;;;;;;;14.60;9.10;;;;;;;9.44;79.68;99285.84;101989;1301;77179;-25
2022/11/08 06:21:03;;;;;;;14.50;8.70;;;;;;;9.48;79.26;99282.73;102061;1301;75218;-25
2022/11/08 06:23:31;;;;;;;16.40;9.00;;;;;;;9.27;79.06;99283.71;101962;1301;62859;-25
2022/11/08 06:25:58;;;;;;;18.00;9.30;;;;;;;9.03;80.17;99289.40;101988;1299;61531;-25
2022/11/08 06:28:26;;;;;;;16.40;9.70;;;;;;;8.82;80.73;99292.95;102134;1302;76397;-25
2022/11/08 06:30:53;;;;;;;12.70;7.50;;;;;;;8.63;81.33;99288.20;101955;1301;76756;-25
2022/11/08 06:33:20;;;;;;;12.60;7.80;;;;;;;9.06;81.44;99291.27;101995;1302;75307;-23
2022/11/08 06:35:48;;;;;;;14.80;8.90;;;;;;;9.60;79.57;99292.08;102001;1294;61897;-23
2022/11/08 06:38:15;;;;;;;13.00;8.30;;;;;;;9.66;78.57;99289.47;101968;1301;61768;-23
2022/11/08 06:40:42;;;;;;;13.20;8.90;;;;;;;9.51;78.98;99291.05;101972;1302;76272;-23
2022/11/08 06:43:10;;;;;;;11.20;8.00;;;;;;;9.30;79.54;99289.80;102022;1301;75888;-23
2022/11/08 06:45:45;;;;;;;15.80;9.40;;;;;;;9.12;80.25;99284.32;101999;1302;74131;-25
2022/11/08 06:48:12;;;;;;;11.00;6.80;;;;;;;9.03;81.10;99289.76;102180;1294;63410;-25
2022/11/08 06:50:40;;;;;;;13.80;7.20;;;;;;;9.47;80.45;99290.62;102089;1300;61149;-26
2022/11/08 06:53:09;;;;;;;11.50;8.70;;;;;;;10.03;78.75;99285.27;101998;1302;76582;-26
2022/11/08 06:55:36;;;;;;;15.40;8.60;;;;;;;10.12;77.41;99292.81;101972;1294;76809;-25
2022/11/08 06:58:04;;;;;;;14.20;8.60;;;;;;;9.94;77.30;99290.84;101852;1297;74193;-25
2022/11/08 07:00:31;;;;;;;13.70;8.80;;;;;;;9.70;77.73;99292.43;101957;1302;63132;-26
2022/11/08 07:02:59;;;;;;;16.40;9.00;;;;;;;9.44;78.35;99288.96;101199;1300;1198995;-25
2022/11/08 07:05:27;;;;;;;11.30;6.50;;;;;;;9.26;79.25;99288.52;101967;1295;76860;-25
2022/11/08 07:07:58;;;;;;;12.50;6.50;;;;;;;9.66;79.09;99288.36;102218;1300;76708;-25
2022/11/08 07:10:27;;;;;;;14.00;8.20;;;;;;;10.22;77.77;99287.88;101905;1307;75119;-26
2022/11/08 07:13:08;;;;;;;12.30;8.00;;;;;;;10.19;76.85;99289.98;102015;1302;63002;-25
2022/11/08 07:15:35;;;;;;;12.10;8.10;;;;;;;10.00;76.85;99287.40;101905;1301;61546;-26
2022/11/08 07:18:07;;;;;;;14.30;8.60;;;;;;;9.85;76.92;99289.04;101911;1302;76180;-26
2022/11/08 07:20:35;;;;;;;13.50;8.10;;;;;;;9.69;78.03;99288.17;101969;1301;77204;-26
2022/11/08 07:23:04;;;;;;;10.50;6.60;;;;;;;9.55;77.92;99293.16;102066;1301;75226;-26
2022/11/08 07:25:31;;;;;;;9.30;6.40;;;;;;;10.00;78.03;99293.16;102089;1294;62987;-26
2022/11/08 07:28:00;;;;;;;15.50;8.10;;;;;;;10.44;75.73;99292.95;101875;1302;62059;-26
2022/11/08 07:30:27;;;;;;;11.00;7.80;;;;;;;10.43;74.24;99286.67;101953;1301;75376;-26
2022/11/08 07:32:55;;;;;;;13.20;8.40;;;;;;;10.22;75.32;99290.45;101994;1301;76749;-26
2022/11/08 07:35:23;;;;;;;14.80;8.40;;;;;;;9.97;76.02;99292.85;102104;1299;74343;-26
2022/11/08 07:37:50;;;;;;;11.70;8.00;;;;;;;9.77;77.19;99292.59;102003;1285;63024;-26
2022/11/08 07:40:17;;;;;;;11.80;8.20;;;;;;;9.59;78.03;99295.33;102098;1302;61472;-26
2022/11/08 07:42:44;;;;;;;11.20;6.40;;;;;;;9.49;78.85;99293.10;102057;1295;75459;-26
2022/11/08 07:45:31;;;;;;;11.30;6.90;;;;;;;10.09;77.19;99294.16;102095;1301;76151;-26
2022/11/08 07:48:03;;;;;;;13.90;8.50;;;;;;;10.59;74.90;99293.62;101998;1301;75067;-26
2022/11/08 07:50:37;;;;;;;13.60;7.80;;;;;;;10.63;73.78;99295.36;101923;1294;62861;-26
2022/11/08 07:53:04;;;;;;;11.90;7.90;;;;;;;10.50;74.83;99294.83;102085;1302;62682;-26
2022/11/08 07:55:34;;;;;;;11.80;7.70;;;;;;;10.32;75.31;99292.70;102102;1293;76440;-26
2022/11/08 07:58:02;;;;;;;11.90;8.00;;;;;;;10.10;75.76;99295.19;102029;1299;76818;-26
2022/11/08 08:00:29;;;;;;;13.80;8.20;;;;;;;9.94;76.32;99294.98;101959;1298;75255;-25
2022/11/08 08:02:58;;;;;;;9.80;6.60;;;;;;;9.86;76.83;99298.36;102105;1294;64509;-25
2022/11/08 08:05:26;;;;;;;10.40;6.80;;;;;;;10.34;75.12;99297.73;102084;1301;62855;-25
2022/11/08 08:07:57;;;;;;;11.50;8.40;;;;;;;10.64;73.88;99298.63;101970;1300;76505;-25
2022/11/08 08:10:25;;;;;;;11.80;7.80;;;;;;;10.57;73.95;99301.86;101956;1299;75431;-26
2022/11/08 08:12:53;;;;;;;16.50;9.60;;;;;;;10.43;74.33;99301.20;102178;1301;74307;-25
2022/11/08 08:15:20;;;;;;;14.60;9.00;;;;;;;10.24;75.21;99304.02;101966;1300;63046;-25
2022/11/08 08:17:47;;;;;;;14.30;7.70;;;;;;;10.05;75.70;99305.13;101969;1302;61571;-25
2022/11/08 08:20:14;;;;;;;13.00;7.10;;;;;;;9.89;76.02;99300.04;102059;1302;74862;-25
2022/11/08 08:22:45;;;;;;;9.90;7.20;;;;;;;10.34;75.38;99298.42;102023;1293;76688;-25
2022/11/08 08:25:13;;;;;;;15.30;7.60;;;;;;;10.81;73.50;99298.30;101958;1301;75223;-26
2022/11/08 08:30:04;;;;;;;12.30;7.50;;;;;;;10.72;72.77;99299.33;99132;1323;600813;-25
2022/11/08 08:32:31;;;;;;;11.20;7.40;;;;;;;10.55;73.05;99303.59;101250;1314;62844;-24
2022/11/08 08:34:58;;;;;;;12.20;7.40;;;;;;;10.45;73.22;99301.09;101305;1311;62611;-25
2022/11/08 08:37:25;;;;;;;13.30;7.40;;;;;;;10.33;73.92;99302.66;101307;1312;74354;-24
2022/11/08 08:39:52;;;;;;;11.50;5.30;;;;;;;10.22;74.34;99305.52;101283;1312;76720;-25
2022/11/08 08:42:19;;;;;;;9.60;5.90;;;;;;;10.67;74.38;99306.70;101188;1311;74173;-25
2022/11/08 08:44:47;;;;;;;10.70;6.60;;;;;;;11.16;71.89;99307.77;100779;1311;1185986;-25
2022/11/08 08:47:14;;;;;;;9.30;6.40;;;;;;;11.25;71.19;99310.84;101296;1311;63172;-25
2022/11/08 08:49:41;;;;;;;13.30;7.10;;;;;;;11.16;72.02;99311.39;101310;1309;74895;-25
2022/11/08 08:52:08;;;;;;;10.40;7.10;;;;;;;10.97;71.57;99311.50;101329;1304;75734;-25
2022/11/08 08:54:35;;;;;;;11.80;6.70;;;;;;;10.78;72.27;99304.06;101384;1310;75668;-25
2022/11/08 08:57:02;;;;;;;10.80;7.00;;;;;;;10.65;71.92;99305.98;101398;1307;62823;-25
2022/11/08 08:59:29;;;;;;;12.30;6.80;;;;;;;10.56;72.23;99304.56;101345;1309;62897;-25
2022/11/08 09:02:17;;;;;;;8.60;5.60;;;;;;;10.45;71.91;99303.67;101371;1307;75374;-25
2022/11/08 09:04:44;;;;;;;8.30;5.50;;;;;;;10.99;70.56;99300.92;101384;1310;76804;-25
2022/11/08 09:07:11;;;;;;;8.30;5.50;;;;;;;11.53;69.38;99301.52;101311;1311;75333;-25
2022/11/08 09:09:39;;;;;;;9.60;6.10;;;;;;;11.56;68.19;99306.80;101540;1312;62027;-25
2022/11/08 09:12:06;;;;;;;9.40;5.60;;;;;;;11.38;67.91;99304.59;101433;1312;62901;-25
2022/11/08 09:14:40;;;;;;;8.80;6.30;;;;;;;11.15;69.33;99307.47;101564;1309;73821;-25
2022/11/08 09:17:07;;;;;;;9.90;6.60;;;;;;;10.99;70.55;99308.95;101552;1308;76778;-24
2022/11/08 09:19:34;;;;;;;12.70;6.20;;;;;;;10.78;69.95;99311.88;101539;1304;75236;-25
2022/11/08 09:22:01;;;;;;;9.70;5.40;;;;;;;10.60;69.82;99314.35;101270;1304;62340;-25
2022/11/08 09:24:29;;;;;;;9.30;6.00;;;;;;;10.51;70.80;99310.88;102008;1302;61734;-24
2022/11/08 09:26:56;;;;;;;7.70;4.50;;;;;;;10.45;70.85;99312.17;101938;1300;74800;-25
2022/11/08 09:29:23;;;;;;;11.10;5.10;;;;;;;10.88;71.84;99308.05;101881;1304;75676;-24
2022/11/08 09:31:50;;;;;;;8.70;5.00;;;;;;;11.44;68.86;99306.60;101837;1298;75490;-24
2022/11/08 09:34:18;;;;;;;10.20;5.10;;;;;;;11.54;67.70;99305.73;101865;1304;63044;-25
2022/11/08 09:36:48;;;;;;;7.40;5.20;;;;;;;11.48;67.68;99309.55;101862;1297;62906;-25
2022/11/08 09:39:16;;;;;;;6.60;5.20;;;;;;;11.29;67.83;99312.61;101821;1304;75592;-24
2022/11/08 09:42:05;;;;;;;10.30;6.10;;;;;;;11.08;68.80;99314.58;101845;1294;76711;-24
2022/11/08 09:44:58;;;;;;;7.70;4.70;;;;;;;10.78;69.66;99316.09;101844;1304;75319;-25
2022/11/08 09:47:30;;;;;;;10.60;6.20;;;;;;;10.72;71.22;99310.11;101836;1306;62982;-25
2022/11/08 09:50:24;;;;;;;8.70;5.50;;;;;;;10.68;70.37;99313.06;101903;1305;61025;-24
2022/11/08 09:52:57;;;;;;;8.70;4.60;;;;;;;10.66;70.71;99305.56;101776;1305;74493;-25
2022/11/08 09:55:28;;;;;;;7.30;5.00;;;;;;;11.28;69.40;99305.75;101833;1304;77097;-24
2022/11/08 09:57:58;;;;;;;8.60;5.30;;;;;;;11.80;68.20;99309.04;101762;1307;75203;-24
2022/11/08 10:00:25;;;;;;;8.00;4.50;;;;;;;11.81;66.67;99311.26;101928;1304;63057;-24
2022/11/08 10:02:52;;;;;;;10.40;5.70;;;;;;;11.50;67.06;99313.86;101943;1298;62875;-24
2022/11/08 10:05:19;;;;;;;9.60;5.00;;;;;;;11.34;68.06;99317.39;101899;1298;75428;-24
2022/11/08 10:07:58;;;;;;;8.10;5.50;;;;;;;11.17;69.24;99315.10;101854;1308;76479;-24
2022/11/08 10:10:36;;;;;;;8.60;5.40;;;;;;;10.99;68.98;99316.00;101819;1303;75298;-24
2022/11/08 10:13:12;;;;;;;8.10;5.20;;;;;;;10.85;69.17;99321.80;101837;1297;61841;-24
2022/11/08 10:16:09;;;;;;;10.20;5.10;;;;;;;10.73;69.92;99317.14;101640;1298;62604;-24
2022/11/08 10:19:05;;;;;;;9.80;5.10;;;;;;;10.63;70.18;99318.84;101856;1305;75684;-24
2022/11/08 10:21:42;;;;;;;5.10;3.30;;;;;;;10.77;71.16;99315.12;101769;1305;75800;-24
2022/11/08 10:24:34;;;;;;;7.80;4.40;;;;;;;11.51;67.42;99310.02;101838;1305;75285;-24
2022/11/08 10:27:02;;;;;;;6.90;3.70;;;;;;;11.81;65.38;99310.55;101711;1307;62103;-24
2022/11/08 10:29:43;;;;;;;7.50;4.00;;;;;;;11.68;65.06;99313.44;101818;1299;61829;-24
2022/11/08 10:32:18;;;;;;;6.10;4.20;;;;;;;11.42;65.84;99315.02;101837;1296;75182;-24
2022/11/08 10:35:05;;;;;;;7.60;4.20;;;;;;;11.30;66.95;99315.30;101770;1305;76827;-24
2022/11/08 10:37:32;;;;;;;6.50;4.10;;;;;;;11.20;66.77;99311.61;101817;1304;74395;-24
2022/11/08 10:40:03;;;;;;;7.50;4.60;;;;;;;10.88;67.45;99312.34;101866;1304;62920;-24
2022/11/08 10:42:38;;;;;;;7.30;4.90;;;;;;;10.80;67.90;99317.49;101740;1300;61178;-24
2022/11/08 10:45:07;;;;;;;7.60;4.40;;;;;;;10.81;67.79;99317.75;101824;1304;75427;-24
2022/11/08 10:47:34;;;;;;;7.70;4.20;;;;;;;10.81;68.26;99321.61;101911;1298;76770;-24
2022/11/08 10:50:12;;;;;;;9.70;4.70;;;;;;;10.77;68.87;99322.20;101748;1308;75028;-24
2022/11/08 10:53:00;;;;;;;7.30;4.40;;;;;;;10.74;68.33;99322.98;101853;1302;61146;-25
2022/11/08 10:55:35;;;;;;;5.40;2.90;;;;;;;10.73;68.39;99323.91;101826;1304;61598;-24
2022/11/08 10:58:03;;;;;;;6.80;2.60;;;;;;;11.52;67.03;99317.04;101798;1307;75604;-24
2022/11/08 11:00:32;;;;;;;5.50;3.00;;;;;;;12.13;65.16;99312.41;101836;1308;76836;-24
2022/11/08 11:03:00;;;;;;;5.20;3.30;;;;;;;12.27;63.95;99310.77;101765;1308;75199;-24
2022/11/08 11:05:30;;;;;;;6.40;3.80;;;;;;;12.24;64.29;99312.27;101906;1305;61698;-24
2022/11/08 11:08:12;;;;;;;8.10;3.60;;;;;;;12.08;63.51;99310.56;101571;1297;62440;-25
2022/11/08 11:10:44;;;;;;;5.40;3.30;;;;;;;11.91;64.20;99311.09;101911;1305;73163;-24
2022/11/08 11:13:27;;;;;;;5.50;3.70;;;;;;;11.77;64.62;99313.59;101721;1312;76569;-24
2022/11/08 11:16:02;;;;;;;7.20;4.00;;;;;;;11.56;63.28;99310.80;101716;1297;74304;-24
2022/11/08 11:18:45;;;;;;;5.00;3.60;;;;;;;11.34;64.01;99307.50;101691;1300;62022;-24
2022/11/08 11:21:16;;;;;;;6.30;3.50;;;;;;;11.26;65.45;99308.66;101853;1297;61500;-25
2022/11/08 11:23:47;;;;;;;4.60;3.50;;;;;;;11.17;65.97;99313.23;101842;1306;75613;-26
2022/11/08 11:26:28;;;;;;;5.00;4.00;;;;;;;11.13;66.68;99309.50;101792;1307;77342;-38
2022/11/08 11:29:08;;;;;;;6.90;4.20;;;;;;;11.10;66.33;99308.21;101847;1299;74269;-25
2022/11/08 11:31:37;;;;;;;4.90;3.60;;;;;;;11.06;66.49;99306.48;101841;1309;62804;-25
2022/11/08 11:34:16;;;;;;;5.80;3.70;;;;;;;11.03;65.86;99310.35;102009;1305;62975;-25
2022/11/08 11:36:53;;;;;;;6.80;3.70;;;;;;;11.03;66.05;99310.52;101889;1297;75616;-24
2022/11/08 11:39:27;;;;;;;5.50;3.60;;;;;;;11.07;66.11;99309.86;101886;1291;76585;-24
2022/11/08 11:42:16;;;;;;;5.00;4.00;;;;;;;11.10;66.54;99308.71;101825;1305;75221;-24
2022/11/08 11:45:20;;;;;;;5.70;3.40;;;;;;;11.12;65.60;99302.82;101462;1303;62954;-24
2022/11/08 11:47:55;;;;;;;7.40;3.20;;;;;;;11.09;66.23;99306.23;101902;1305;61875;-24
2022/11/08 11:50:26;;;;;;;3.70;2.00;;;;;;;11.15;66.44;99306.38;101781;1308;74640;-24
2022/11/08 11:52:55;;;;;;;3.50;2.00;;;;;;;11.90;65.85;99303.00;101849;1308;75564;-24
2022/11/08 11:55:45;;;;;;;4.50;2.70;;;;;;;12.69;63.37;99306.91;101868;1304;75416;-24
2022/11/08 11:58:25;;;;;;;4.10;2.70;;;;;;;12.84;61.06;99306.59;102160;1302;61033;-24